Date,TemperatureHighF,TemperatureAvgF,TemperatureLowF,DewpointHighF,DewpointAvgF,DewpointLowF,HumidityHigh,HumidityAvg,HumidityLow,PressureMaxIn,PressureMinIn,WindSpeedMaxMPH,WindSpeedAvgMPH,GustSpeedMaxMPH,PrecipitationSumIn
2013-4-1,39.0,30.3,25.2,23.5,7.6,1.8,69,38,35,29.46,29.08,23,12,23,0.00
2013-4-2,38.8,30.5,20.3,13.5,8.5,3.1,60,40,35,29.61,29.45,25,10,25,0.01
2013-4-3,41.7,31.5,21.4,16.0,7.6,-0.5,46,36,35,29.80,29.61,17,5,17,0.00
2013-4-4,55.6,44.9,28.4,28.2,18.8,4.2,35,35,35,29.71,29.31,23,11,23,0.00
2013-4-5,49.5,49.5,49.5,23.0,23.0,23.0,51,38,35,29.50,29.31,15,8,15,0.00
2013-4-6,50.4,39.8,29.7,23.7,15.4,6.8,47,37,35,29.60,29.12,24,12,24,0.04
2013-4-7,56.8,46.3,34.3,34.7,23.8,18.5,57,42,35,29.41,28.96,29,12,29,0.63
2013-4-8,61.3,43.4,30.7,49.9,32.1,19.9,85,65,37,29.42,29.07,27,9,27,0.35
2013-4-9,49.5,43.5,39.7,43.6,39.8,36.1,97,87,62,29.46,29.27,14,7,14,0.59
2013-4-10,41.4,39.1,37.8,39.5,36.3,34.4,96,90,84,29.39,29.30,27,12,27,0.39
2013-4-11,37.4,35.8,34.7,33.8,32.4,30.0,92,87,76,29.39,29.05,24,14,24,0.60
2013-4-12,42.4,37.5,33.3,36.2,32.6,26.8,95,83,56,29.12,28.92,21,9,21,0.38
2013-4-13,40.3,37.7,35.6,36.9,23.9,13.3,92,59,35,29.35,29.13,23,13,23,0.32
2013-4-14,47.3,39.2,30.2,26.7,22.0,14.4,71,51,35,29.48,29.32,16,7,16,0.01
2013-4-15,50.5,45.4,42.6,31.1,26.8,24.3,50,48,40,29.30,29.26,21,10,21,0.00
2013-4-16,59.5,51.5,44.6,53.0,35.7,21.3,92,59,35,29.61,29.25,17,7,17,0.11
2013-4-17,57.2,46.2,38.5,39.7,27.4,17.6,87,50,35,29.73,29.40,24,10,24,0.63
2013-4-18,76.8,58.8,44.2,58.1,51.2,37.5,93,77,48,29.37,28.94,32,14,32,2.16
2013-4-19,59.4,43.9,36.3,57.7,32.3,17.7,96,66,39,29.06,28.74,44,19,44,5.82
2013-4-20,36.5,36.5,36.5,26.2,26.2,4.5,66,66,66,29.32,29.06,16,16,27,5.83
2013-4-21,49.3,37.3,24.6,22.8,17.5,12.4,76,47,35,29.98,29.81,14,6,14,0.00
2013-4-22,62.8,48.7,34.5,34.7,24.3,10.1,59,39,35,29.82,29.56,14,6,14,0.00
2013-4-23,68.2,56.1,45.7,51.1,34.0,19.6,87,46,35,29.56,29.21,18,11,18,0.26
2013-4-24,46.6,38.5,33.8,43.9,29.0,14.8,91,72,35,29.48,29.18,16,9,16,0.54
2013-4-25,49.3,41.5,35.2,33.4,26.8,15.9,76,57,35,29.51,29.44,26,13,26,0.05